sensor_id;sensor_type;location;lat;lon;timestamp;P1;durP1;ratioP1;P2;durP2;ratioP2
81314;SDS011;75773;52.534;5.686;2024-03-07T00:01:55;31.30;;;11.13;;
81314;SDS011;75773;52.534;5.686;2024-03-07T00:04:24;23.05;;;9.20;;
81314;SDS011;75773;52.534;5.686;2024-03-07T00:06:53;21.20;;;9.40;;
81314;SDS011;75773;52.534;5.686;2024-03-07T00:09:25;20.45;;;9.02;;
81314;SDS011;75773;52.534;5.686;2024-03-07T00:11:55;16.15;;;9.02;;
81314;SDS011;75773;52.534;5.686;2024-03-07T00:14:24;27.05;;;10.38;;
81314;SDS011;75773;52.534;5.686;2024-03-07T00:16:54;21.58;;;10.65;;
81314;SDS011;75773;52.534;5.686;2024-03-07T00:19:25;17.75;;;8.90;;
81314;SDS011;75773;52.534;5.686;2024-03-07T00:21:58;20.98;;;9.38;;
81314;SDS011;75773;52.534;5.686;2024-03-07T00:24:27;25.42;;;11.07;;
81314;SDS011;75773;52.534;5.686;2024-03-07T00:26:57;25.70;;;10.52;;
81314;SDS011;75773;52.534;5.686;2024-03-07T00:29:26;21.27;;;10.50;;
81314;SDS011;75773;52.534;5.686;2024-03-07T00:31:55;19.52;;;10.73;;
81314;SDS011;75773;52.534;5.686;2024-03-07T00:34:25;24.83;;;7.70;;
81314;SDS011;75773;52.534;5.686;2024-03-07T00:36:54;21.48;;;10.75;;
81314;SDS011;75773;52.534;5.686;2024-03-07T00:39:27;17.55;;;9.93;;
81314;SDS011;75773;52.534;5.686;2024-03-07T00:41:59;26.00;;;10.43;;
81314;SDS011;75773;52.534;5.686;2024-03-07T00:44:28;21.75;;;9.93;;
81314;SDS011;75773;52.534;5.686;2024-03-07T00:46:57;27.73;;;10.60;;
81314;SDS011;75773;52.534;5.686;2024-03-07T00:49:27;28.20;;;10.45;;
81314;SDS011;75773;52.534;5.686;2024-03-07T00:51:57;22.35;;;10.00;;
81314;SDS011;75773;52.534;5.686;2024-03-07T00:54:29;21.98;;;9.52;;
81314;SDS011;75773;52.534;5.686;2024-03-07T00:56:59;19.25;;;10.07;;
81314;SDS011;75773;52.534;5.686;2024-03-07T00:59:28;26.60;;;13.20;;
81314;SDS011;75773;52.534;5.686;2024-03-07T01:01:57;21.13;;;10.32;;
81314;SDS011;75773;52.534;5.686;2024-03-07T01:04:27;21.30;;;10.40;;
81314;SDS011;75773;52.534;5.686;2024-03-07T01:06:59;25.33;;;11.45;;
81314;SDS011;75773;52.534;5.686;2024-03-07T01:09:31;23.60;;;10.07;;
81314;SDS011;75773;52.534;5.686;2024-03-07T01:12:01;22.40;;;10.73;;
81314;SDS011;75773;52.534;5.686;2024-03-07T01:14:31;21.45;;;11.00;;
81314;SDS011;75773;52.534;5.686;2024-03-07T01:17:01;23.25;;;9.88;;
81314;SDS011;75773;52.534;5.686;2024-03-07T01:19:32;26.75;;;10.50;;
81314;SDS011;75773;52.534;5.686;2024-03-07T01:22:03;34.65;;;10.15;;
81314;SDS011;75773;52.534;5.686;2024-03-07T01:24:36;20.38;;;10.02;;
81314;SDS011;75773;52.534;5.686;2024-03-07T01:27:06;18.63;;;8.80;;
81314;SDS011;75773;52.534;5.686;2024-03-07T01:29:35;20.35;;;9.25;;
81314;SDS011;75773;52.534;5.686;2024-03-07T01:32:07;17.33;;;10.05;;
81314;SDS011;75773;52.534;5.686;2024-03-07T01:34:36;26.67;;;9.55;;
81314;SDS011;75773;52.534;5.686;2024-03-07T01:37:05;23.80;;;9.90;;
81314;SDS011;75773;52.534;5.686;2024-03-07T01:39:37;17.55;;;9.90;;
81314;SDS011;75773;52.534;5.686;2024-03-07T01:42:07;17.58;;;8.68;;
81314;SDS011;75773;52.534;5.686;2024-03-07T01:44:36;25.67;;;10.43;;
81314;SDS011;75773;52.534;5.686;2024-03-07T01:47:06;26.70;;;9.85;;
81314;SDS011;75773;52.534;5.686;2024-03-07T01:49:36;21.40;;;9.52;;
81314;SDS011;75773;52.534;5.686;2024-03-07T01:52:08;25.27;;;9.85;;
81314;SDS011;75773;52.534;5.686;2024-03-07T01:54:42;21.48;;;10.27;;
81314;SDS011;75773;52.534;5.686;2024-03-07T01:57:11;26.65;;;11.00;;
81314;SDS011;75773;52.534;5.686;2024-03-07T01:59:41;21.02;;;10.68;;
81314;SDS011;75773;52.534;5.686;2024-03-07T02:02:11;14.13;;;8.95;;
81314;SDS011;75773;52.534;5.686;2024-03-07T02:04:40;20.85;;;9.38;;
81314;SDS011;75773;52.534;5.686;2024-03-07T02:07:10;21.98;;;10.55;;
81314;SDS011;75773;52.534;5.686;2024-03-07T02:09:42;25.63;;;10.02;;
81314;SDS011;75773;52.534;5.686;2024-03-07T02:12:11;24.75;;;9.32;;
81314;SDS011;75773;52.534;5.686;2024-03-07T02:14:41;22.90;;;10.70;;
81314;SDS011;75773;52.534;5.686;2024-03-07T02:17:10;24.23;;;10.60;;
81314;SDS011;75773;52.534;5.686;2024-03-07T02:19:42;18.90;;;9.00;;
81314;SDS011;75773;52.534;5.686;2024-03-07T02:22:15;25.50;;;9.50;;
81314;SDS011;75773;52.534;5.686;2024-03-07T02:24:44;20.08;;;11.48;;
81314;SDS011;75773;52.534;5.686;2024-03-07T02:27:14;21.77;;;10.48;;
81314;SDS011;75773;52.534;5.686;2024-03-07T02:29:43;21.52;;;10.43;;
81314;SDS011;75773;52.534;5.686;2024-03-07T02:32:13;22.13;;;8.27;;
81314;SDS011;75773;52.534;5.686;2024-03-07T02:34:42;23.00;;;10.52;;
81314;SDS011;75773;52.534;5.686;2024-03-07T02:37:15;23.30;;;10.13;;
81314;SDS011;75773;52.534;5.686;2024-03-07T02:39:44;23.13;;;8.73;;
81314;SDS011;75773;52.534;5.686;2024-03-07T02:42:14;20.90;;;10.68;;
81314;SDS011;75773;52.534;5.686;2024-03-07T02:44:43;29.90;;;10.05;;
81314;SDS011;75773;52.534;5.686;2024-03-07T02:47:12;20.80;;;9.88;;
81314;SDS011;75773;52.534;5.686;2024-03-07T02:49:43;22.10;;;10.65;;
81314;SDS011;75773;52.534;5.686;2024-03-07T02:52:15;26.80;;;10.18;;
81314;SDS011;75773;52.534;5.686;2024-03-07T02:54:44;25.45;;;11.32;;
81314;SDS011;75773;52.534;5.686;2024-03-07T02:57:14;24.42;;;11.30;;
81314;SDS011;75773;52.534;5.686;2024-03-07T02:59:43;23.67;;;9.95;;
81314;SDS011;75773;52.534;5.686;2024-03-07T03:02:12;26.65;;;10.02;;
81314;SDS011;75773;52.534;5.686;2024-03-07T03:04:41;25.25;;;11.10;;
81314;SDS011;75773;52.534;5.686;2024-03-07T03:07:11;21.25;;;10.10;;
81314;SDS011;75773;52.534;5.686;2024-03-07T03:09:43;20.48;;;10.85;;
81314;SDS011;75773;52.534;5.686;2024-03-07T03:12:12;20.85;;;9.23;;
81314;SDS011;75773;52.534;5.686;2024-03-07T03:14:42;32.58;;;11.57;;
81314;SDS011;75773;52.534;5.686;2024-03-07T03:17:11;25.20;;;11.00;;
81314;SDS011;75773;52.534;5.686;2024-03-07T03:19:41;30.42;;;9.90;;
81314;SDS011;75773;52.534;5.686;2024-03-07T03:22:11;23.35;;;10.13;;
81314;SDS011;75773;52.534;5.686;2024-03-07T03:24:43;25.48;;;10.70;;
81314;SDS011;75773;52.534;5.686;2024-03-07T03:27:12;22.15;;;10.88;;
81314;SDS011;75773;52.534;5.686;2024-03-07T03:29:42;19.23;;;8.40;;
81314;SDS011;75773;52.534;5.686;2024-03-07T03:32:11;21.60;;;11.80;;
81314;SDS011;75773;52.534;5.686;2024-03-07T03:34:41;17.73;;;8.38;;
81314;SDS011;75773;52.534;5.686;2024-03-07T03:37:10;20.27;;;9.73;;
81314;SDS011;75773;52.534;5.686;2024-03-07T03:39:39;17.90;;;8.90;;
81314;SDS011;75773;52.534;5.686;2024-03-07T03:42:12;23.88;;;9.35;;
81314;SDS011;75773;52.534;5.686;2024-03-07T03:44:42;26.98;;;9.32;;
81314;SDS011;75773;52.534;5.686;2024-03-07T03:47:12;19.00;;;9.55;;
81314;SDS011;75773;52.534;5.686;2024-03-07T03:49:42;26.17;;;9.30;;
81314;SDS011;75773;52.534;5.686;2024-03-07T03:52:11;17.23;;;9.00;;
81314;SDS011;75773;52.534;5.686;2024-03-07T03:54:43;21.05;;;8.35;;
81314;SDS011;75773;52.534;5.686;2024-03-07T03:57:13;20.08;;;9.23;;
81314;SDS011;75773;52.534;5.686;2024-03-07T03:59:44;21.75;;;9.32;;
81314;SDS011;75773;52.534;5.686;2024-03-07T04:02:13;26.65;;;10.52;;
81314;SDS011;75773;52.534;5.686;2024-03-07T04:04:42;17.73;;;8.50;;
81314;SDS011;75773;52.534;5.686;2024-03-07T04:07:12;16.05;;;9.32;;
81314;SDS011;75773;52.534;5.686;2024-03-07T04:09:44;18.05;;;7.80;;
81314;SDS011;75773;52.534;5.686;2024-03-07T04:12:14;19.75;;;9.40;;
81314;SDS011;75773;52.534;5.686;2024-03-07T04:14:43;17.75;;;9.07;;
81314;SDS011;75773;52.534;5.686;2024-03-07T04:17:13;13.75;;;6.70;;
81314;SDS011;75773;52.534;5.686;2024-03-07T04:19:42;23.38;;;8.13;;
81314;SDS011;75773;52.534;5.686;2024-03-07T04:22:12;20.83;;;10.35;;
81314;SDS011;75773;52.534;5.686;2024-03-07T04:24:44;18.90;;;8.52;;
81314;SDS011;75773;52.534;5.686;2024-03-07T04:27:14;23.27;;;9.70;;
81314;SDS011;75773;52.534;5.686;2024-03-07T04:29:43;21.52;;;9.65;;
81314;SDS011;75773;52.534;5.686;2024-03-07T04:32:13;19.35;;;8.50;;
81314;SDS011;75773;52.534;5.686;2024-03-07T04:34:43;20.80;;;9.10;;
81314;SDS011;75773;52.534;5.686;2024-03-07T04:37:12;20.48;;;9.73;;
81314;SDS011;75773;52.534;5.686;2024-03-07T04:39:45;15.68;;;7.80;;
81314;SDS011;75773;52.534;5.686;2024-03-07T04:42:14;17.73;;;8.18;;
81314;SDS011;75773;52.534;5.686;2024-03-07T04:44:43;15.73;;;7.43;;
81314;SDS011;75773;52.534;5.686;2024-03-07T04:47:13;19.58;;;8.20;;
81314;SDS011;75773;52.534;5.686;2024-03-07T04:49:42;16.30;;;8.57;;
81314;SDS011;75773;52.534;5.686;2024-03-07T04:52:12;17.88;;;7.90;;
81314;SDS011;75773;52.534;5.686;2024-03-07T04:54:41;15.90;;;7.60;;
81314;SDS011;75773;52.534;5.686;2024-03-07T04:57:13;15.82;;;7.60;;
81314;SDS011;75773;52.534;5.686;2024-03-07T04:59:44;17.75;;;7.28;;
81314;SDS011;75773;52.534;5.686;2024-03-07T05:02:14;16.48;;;8.68;;
81314;SDS011;75773;52.534;5.686;2024-03-07T05:04:43;15.10;;;7.35;;
81314;SDS011;75773;52.534;5.686;2024-03-07T05:07:15;19.00;;;8.48;;
81314;SDS011;75773;52.534;5.686;2024-03-07T05:09:44;15.43;;;8.43;;
81314;SDS011;75773;52.534;5.686;2024-03-07T07:10:56;10.45;;;5.45;;
81314;SDS011;75773;52.534;5.686;2024-03-07T07:13:26;13.13;;;5.38;;
81314;SDS011;75773;52.534;5.686;2024-03-07T07:15:58;12.07;;;5.97;;
81314;SDS011;75773;52.534;5.686;2024-03-07T07:18:27;11.15;;;6.75;;
81314;SDS011;75773;52.534;5.686;2024-03-07T07:20:57;16.52;;;6.60;;
81314;SDS011;75773;52.534;5.686;2024-03-07T07:23:28;12.73;;;4.93;;
81314;SDS011;75773;52.534;5.686;2024-03-07T07:26:00;11.95;;;5.53;;
81314;SDS011;75773;52.534;5.686;2024-03-07T07:28:31;8.35;;;4.82;;
81314;SDS011;75773;52.534;5.686;2024-03-07T07:31:02;10.10;;;4.88;;
81314;SDS011;75773;52.534;5.686;2024-03-07T07:33:31;11.85;;;5.95;;
81314;SDS011;75773;52.534;5.686;2024-03-07T07:36:05;12.70;;;6.53;;
81314;SDS011;75773;52.534;5.686;2024-03-07T07:38:36;10.73;;;6.20;;
81314;SDS011;75773;52.534;5.686;2024-03-07T07:41:08;13.50;;;6.22;;
81314;SDS011;75773;52.534;5.686;2024-03-07T07:43:39;14.35;;;5.47;;
81314;SDS011;75773;52.534;5.686;2024-03-07T07:46:08;11.63;;;5.85;;
81314;SDS011;75773;52.534;5.686;2024-03-07T07:48:38;8.93;;;4.90;;
81314;SDS011;75773;52.534;5.686;2024-03-07T07:51:07;12.68;;;5.63;;
81314;SDS011;75773;52.534;5.686;2024-03-07T07:53:38;11.13;;;6.05;;
81314;SDS011;75773;52.534;5.686;2024-03-07T07:56:10;8.38;;;4.75;;
81314;SDS011;75773;52.534;5.686;2024-03-07T07:58:39;11.30;;;5.40;;
81314;SDS011;75773;52.534;5.686;2024-03-07T08:01:08;9.30;;;5.22;;
81314;SDS011;75773;52.534;5.686;2024-03-07T08:03:40;11.45;;;5.22;;
81314;SDS011;75773;52.534;5.686;2024-03-07T08:06:09;12.18;;;5.72;;
81314;SDS011;75773;52.534;5.686;2024-03-07T08:08:38;8.85;;;5.47;;
81314;SDS011;75773;52.534;5.686;2024-03-07T08:11:10;9.48;;;5.13;;
81314;SDS011;75773;52.534;5.686;2024-03-07T08:13:40;14.63;;;5.45;;
81314;SDS011;75773;52.534;5.686;2024-03-07T08:16:12;19.58;;;6.20;;
81314;SDS011;75773;52.534;5.686;2024-03-07T08:18:41;10.27;;;5.68;;
81314;SDS011;75773;52.534;5.686;2024-03-07T08:21:10;10.75;;;6.25;;
81314;SDS011;75773;52.534;5.686;2024-03-07T08:23:40;11.15;;;5.80;;
81314;SDS011;75773;52.534;5.686;2024-03-07T08:26:12;9.15;;;6.05;;
81314;SDS011;75773;52.534;5.686;2024-03-07T08:28:43;12.98;;;6.45;;
81314;SDS011;75773;52.534;5.686;2024-03-07T08:31:19;13.20;;;5.47;;
81314;SDS011;75773;52.534;5.686;2024-03-07T08:33:49;11.68;;;6.30;;
81314;SDS011;75773;52.534;5.686;2024-03-07T08:36:19;12.48;;;6.10;;
81314;SDS011;75773;52.534;5.686;2024-03-07T08:38:48;15.35;;;6.25;;
81314;SDS011;75773;52.534;5.686;2024-03-07T08:41:21;12.63;;;6.68;;
81314;SDS011;75773;52.534;5.686;2024-03-07T08:43:53;12.13;;;6.25;;
81314;SDS011;75773;52.534;5.686;2024-03-07T08:46:22;9.70;;;5.00;;
81314;SDS011;75773;52.534;5.686;2024-03-07T08:48:53;9.23;;;5.80;;
81314;SDS011;75773;52.534;5.686;2024-03-07T08:51:22;10.27;;;4.72;;
81314;SDS011;75773;52.534;5.686;2024-03-07T08:53:52;10.82;;;5.85;;
81314;SDS011;75773;52.534;5.686;2024-03-07T08:56:27;10.38;;;6.10;;
81314;SDS011;75773;52.534;5.686;2024-03-07T08:58:57;11.88;;;6.72;;
81314;SDS011;75773;52.534;5.686;2024-03-07T09:01:31;10.40;;;5.15;;
81314;SDS011;75773;52.534;5.686;2024-03-07T09:04:00;9.60;;;5.13;;
81314;SDS011;75773;52.534;5.686;2024-03-07T09:06:29;7.20;;;4.15;;
81314;SDS011;75773;52.534;5.686;2024-03-07T09:08:59;12.35;;;5.05;;
81314;SDS011;75773;52.534;5.686;2024-03-07T09:11:31;8.77;;;5.38;;
81314;SDS011;75773;52.534;5.686;2024-03-07T09:14:02;7.05;;;3.67;;
81314;SDS011;75773;52.534;5.686;2024-03-07T09:16:35;9.18;;;4.95;;
81314;SDS011;75773;52.534;5.686;2024-03-07T09:19:05;8.93;;;5.15;;
81314;SDS011;75773;52.534;5.686;2024-03-07T09:21:35;13.90;;;5.10;;
81314;SDS011;75773;52.534;5.686;2024-03-07T09:24:06;8.85;;;4.95;;
81314;SDS011;75773;52.534;5.686;2024-03-07T09:26:38;6.68;;;3.85;;
81314;SDS011;75773;52.534;5.686;2024-03-07T09:29:07;7.90;;;4.45;;
81314;SDS011;75773;52.534;5.686;2024-03-07T09:31:37;8.52;;;3.88;;
81314;SDS011;75773;52.534;5.686;2024-03-07T09:34:06;7.88;;;4.15;;
81314;SDS011;75773;52.534;5.686;2024-03-07T09:36:36;17.77;;;5.00;;
81314;SDS011;75773;52.534;5.686;2024-03-07T09:39:06;10.52;;;4.60;;
81314;SDS011;75773;52.534;5.686;2024-03-07T09:41:40;7.30;;;4.45;;
81314;SDS011;75773;52.534;5.686;2024-03-07T09:44:10;6.82;;;3.92;;
81314;SDS011;75773;52.534;5.686;2024-03-07T09:46:48;7.72;;;4.55;;
81314;SDS011;75773;52.534;5.686;2024-03-07T09:49:18;9.23;;;3.88;;
81314;SDS011;75773;52.534;5.686;2024-03-07T09:51:49;8.98;;;4.88;;
81314;SDS011;75773;52.534;5.686;2024-03-07T09:54:22;9.40;;;5.10;;
81314;SDS011;75773;52.534;5.686;2024-03-07T09:56:58;5.05;;;3.38;;
81314;SDS011;75773;52.534;5.686;2024-03-07T09:59:34;3.35;;;2.55;;
81314;SDS011;75773;52.534;5.686;2024-03-07T10:02:05;8.52;;;4.85;;
81314;SDS011;75773;52.534;5.686;2024-03-07T10:04:37;7.95;;;4.18;;
81314;SDS011;75773;52.534;5.686;2024-03-07T10:07:14;7.40;;;3.78;;
81314;SDS011;75773;52.534;5.686;2024-03-07T10:09:44;9.15;;;4.45;;
81314;SDS011;75773;52.534;5.686;2024-03-07T10:12:17;11.93;;;4.68;;
81314;SDS011;75773;52.534;5.686;2024-03-07T10:14:49;9.73;;;4.78;;
81314;SDS011;75773;52.534;5.686;2024-03-07T10:17:20;7.07;;;3.85;;
81314;SDS011;75773;52.534;5.686;2024-03-07T10:19:51;13.02;;;4.40;;
81314;SDS011;75773;52.534;5.686;2024-03-07T10:22:22;8.35;;;4.97;;
81314;SDS011;75773;52.534;5.686;2024-03-07T10:24:52;9.85;;;5.38;;
81314;SDS011;75773;52.534;5.686;2024-03-07T10:27:27;6.80;;;3.85;;
81314;SDS011;75773;52.534;5.686;2024-03-07T10:29:59;12.32;;;5.05;;
81314;SDS011;75773;52.534;5.686;2024-03-07T10:32:29;10.35;;;4.05;;
81314;SDS011;75773;52.534;5.686;2024-03-07T10:34:59;8.75;;;4.50;;
81314;SDS011;75773;52.534;5.686;2024-03-07T10:37:29;10.82;;;5.30;;
81314;SDS011;75773;52.534;5.686;2024-03-07T10:39:58;7.70;;;4.13;;
81314;SDS011;75773;52.534;5.686;2024-03-07T10:42:45;6.93;;;4.28;;
81314;SDS011;75773;52.534;5.686;2024-03-07T10:45:18;9.23;;;4.43;;
81314;SDS011;75773;52.534;5.686;2024-03-07T10:47:51;7.40;;;3.28;;
81314;SDS011;75773;52.534;5.686;2024-03-07T10:50:32;9.95;;;5.35;;
81314;SDS011;75773;52.534;5.686;2024-03-07T10:53:13;11.35;;;5.03;;
81314;SDS011;75773;52.534;5.686;2024-03-07T10:55:53;7.43;;;3.92;;
81314;SDS011;75773;52.534;5.686;2024-03-07T10:58:45;10.77;;;5.85;;
81314;SDS011;75773;52.534;5.686;2024-03-07T11:01:26;8.82;;;4.78;;
81314;SDS011;75773;52.534;5.686;2024-03-07T11:03:59;11.48;;;4.53;;
81314;SDS011;75773;52.534;5.686;2024-03-07T11:06:31;15.77;;;4.97;;
81314;SDS011;75773;52.534;5.686;2024-03-07T11:09:03;11.13;;;5.13;;
81314;SDS011;75773;52.534;5.686;2024-03-07T11:11:37;10.80;;;5.72;;
81314;SDS011;75773;52.534;5.686;2024-03-07T11:14:12;10.18;;;5.82;;
81314;SDS011;75773;52.534;5.686;2024-03-07T11:16:42;11.95;;;5.25;;
81314;SDS011;75773;52.534;5.686;2024-03-07T11:19:19;14.02;;;6.85;;
81314;SDS011;75773;52.534;5.686;2024-03-07T11:22:02;15.88;;;6.70;;
81314;SDS011;75773;52.534;5.686;2024-03-07T11:27:36;10.85;;;4.85;;
81314;SDS011;75773;52.534;5.686;2024-03-07T11:30:14;15.48;;;6.07;;
81314;SDS011;75773;52.534;5.686;2024-03-07T11:32:47;21.73;;;7.13;;
81314;SDS011;75773;52.534;5.686;2024-03-07T11:35:20;10.27;;;6.00;;
81314;SDS011;75773;52.534;5.686;2024-03-07T11:38:01;14.25;;;6.35;;
81314;SDS011;75773;52.534;5.686;2024-03-07T11:43:22;13.65;;;6.32;;
81314;SDS011;75773;52.534;5.686;2024-03-07T11:46:00;13.32;;;6.72;;
81314;SDS011;75773;52.534;5.686;2024-03-07T11:48:38;11.75;;;5.90;;
81314;SDS011;75773;52.534;5.686;2024-03-07T11:51:12;13.38;;;7.32;;
81314;SDS011;75773;52.534;5.686;2024-03-07T11:53:41;12.63;;;5.22;;
81314;SDS011;75773;52.534;5.686;2024-03-07T11:56:13;22.67;;;7.18;;
81314;SDS011;75773;52.534;5.686;2024-03-07T11:58:45;11.00;;;4.55;;
81314;SDS011;75773;52.534;5.686;2024-03-07T12:01:25;10.90;;;4.75;;
81314;SDS011;75773;52.534;5.686;2024-03-07T12:03:56;18.05;;;6.28;;
81314;SDS011;75773;52.534;5.686;2024-03-07T12:11:49;10.00;;;5.80;;
81314;SDS011;75773;52.534;5.686;2024-03-07T12:14:23;13.30;;;6.25;;
81314;SDS011;75773;52.534;5.686;2024-03-07T12:16:55;11.77;;;6.00;;
81314;SDS011;75773;52.534;5.686;2024-03-07T12:19:25;16.50;;;5.60;;
81314;SDS011;75773;52.534;5.686;2024-03-07T12:22:07;12.65;;;5.40;;
81314;SDS011;75773;52.534;5.686;2024-03-07T12:24:58;11.57;;;5.00;;
81314;SDS011;75773;52.534;5.686;2024-03-07T12:27:33;13.32;;;6.22;;
81314;SDS011;75773;52.534;5.686;2024-03-07T12:30:14;10.05;;;6.03;;
81314;SDS011;75773;52.534;5.686;2024-03-07T12:32:50;12.93;;;6.53;;
81314;SDS011;75773;52.534;5.686;2024-03-07T12:35:20;14.05;;;6.13;;
81314;SDS011;75773;52.534;5.686;2024-03-07T12:37:50;10.75;;;5.85;;
81314;SDS011;75773;52.534;5.686;2024-03-07T12:40:19;13.55;;;6.60;;
81314;SDS011;75773;52.534;5.686;2024-03-07T12:42:52;10.98;;;4.90;;
81314;SDS011;75773;52.534;5.686;2024-03-07T12:45:21;12.85;;;5.80;;
81314;SDS011;75773;52.534;5.686;2024-03-07T12:47:58;9.95;;;4.55;;
81314;SDS011;75773;52.534;5.686;2024-03-07T12:50:30;13.25;;;6.07;;
81314;SDS011;75773;52.534;5.686;2024-03-07T12:53:02;15.48;;;6.00;;
81314;SDS011;75773;52.534;5.686;2024-03-07T12:55:39;13.82;;;5.95;;
81314;SDS011;75773;52.534;5.686;2024-03-07T12:58:13;8.00;;;4.75;;
81314;SDS011;75773;52.534;5.686;2024-03-07T13:00:44;13.60;;;6.07;;
81314;SDS011;75773;52.534;5.686;2024-03-07T13:03:16;11.23;;;5.70;;
81314;SDS011;75773;52.534;5.686;2024-03-07T13:05:46;10.85;;;4.80;;
81314;SDS011;75773;52.534;5.686;2024-03-07T13:08:15;10.10;;;5.60;;
81314;SDS011;75773;52.534;5.686;2024-03-07T13:10:45;9.50;;;5.80;;
81314;SDS011;75773;52.534;5.686;2024-03-07T13:13:14;10.15;;;4.03;;
81314;SDS011;75773;52.534;5.686;2024-03-07T13:15:44;10.68;;;5.53;;
81314;SDS011;75773;52.534;5.686;2024-03-07T13:18:15;11.63;;;5.70;;
81314;SDS011;75773;52.534;5.686;2024-03-07T13:20:45;12.32;;;5.55;;
81314;SDS011;75773;52.534;5.686;2024-03-07T13:23:14;9.70;;;5.05;;
81314;SDS011;75773;52.534;5.686;2024-03-07T13:25:44;11.35;;;4.95;;
81314;SDS011;75773;52.534;5.686;2024-03-07T13:28:14;9.20;;;4.88;;
81314;SDS011;75773;52.534;5.686;2024-03-07T13:30:50;7.75;;;4.07;;
81314;SDS011;75773;52.534;5.686;2024-03-07T13:33:23;9.10;;;3.95;;
81314;SDS011;75773;52.534;5.686;2024-03-07T13:35:53;10.20;;;4.40;;
81314;SDS011;75773;52.534;5.686;2024-03-07T13:38:22;8.18;;;3.92;;
81314;SDS011;75773;52.534;5.686;2024-03-07T13:41:01;8.07;;;3.92;;
81314;SDS011;75773;52.534;5.686;2024-03-07T13:43:30;5.93;;;4.15;;
81314;SDS011;75773;52.534;5.686;2024-03-07T13:46:00;12.38;;;5.43;;
81314;SDS011;75773;52.534;5.686;2024-03-07T13:48:47;8.27;;;4.40;;
81314;SDS011;75773;52.534;5.686;2024-03-07T13:51:18;7.78;;;4.55;;
81314;SDS011;75773;52.534;5.686;2024-03-07T13:53:48;9.95;;;5.95;;
81314;SDS011;75773;52.534;5.686;2024-03-07T13:56:45;9.65;;;4.53;;
81314;SDS011;75773;52.534;5.686;2024-03-07T14:02:30;9.38;;;5.07;;
81314;SDS011;75773;52.534;5.686;2024-03-07T14:08:40;7.28;;;4.10;;
81314;SDS011;75773;52.534;5.686;2024-03-07T14:11:33;10.73;;;4.47;;
81314;SDS011;75773;52.534;5.686;2024-03-07T14:14:30;7.32;;;4.05;;
81314;SDS011;75773;52.534;5.686;2024-03-07T14:20:39;6.68;;;3.55;;
81314;SDS011;75773;52.534;5.686;2024-03-07T14:23:45;9.02;;;4.55;;
81314;SDS011;75773;52.534;5.686;2024-03-07T14:26:50;8.77;;;4.20;;
81314;SDS011;75773;52.534;5.686;2024-03-07T14:29:49;8.98;;;4.75;;
81314;SDS011;75773;52.534;5.686;2024-03-07T14:32:24;14.32;;;6.07;;
81314;SDS011;75773;52.534;5.686;2024-03-07T14:34:55;8.55;;;3.90;;
81314;SDS011;75773;52.534;5.686;2024-03-07T14:37:33;10.98;;;5.18;;
81314;SDS011;75773;52.534;5.686;2024-03-07T14:40:12;9.32;;;5.07;;
81314;SDS011;75773;52.534;5.686;2024-03-07T14:42:44;8.65;;;4.00;;
81314;SDS011;75773;52.534;5.686;2024-03-07T14:45:18;11.52;;;5.55;;
81314;SDS011;75773;52.534;5.686;2024-03-07T14:47:50;6.57;;;3.33;;
81314;SDS011;75773;52.534;5.686;2024-03-07T14:50:20;13.25;;;4.45;;
81314;SDS011;75773;52.534;5.686;2024-03-07T14:52:51;16.50;;;6.35;;
81314;SDS011;75773;52.534;5.686;2024-03-07T14:55:23;10.18;;;3.55;;
81314;SDS011;75773;52.534;5.686;2024-03-07T14:57:52;7.63;;;3.75;;
81314;SDS011;75773;52.534;5.686;2024-03-07T15:00:22;7.15;;;4.15;;
81314;SDS011;75773;52.534;5.686;2024-03-07T15:02:54;8.60;;;5.05;;
81314;SDS011;75773;52.534;5.686;2024-03-07T15:05:25;12.43;;;5.03;;
81314;SDS011;75773;52.534;5.686;2024-03-07T15:07:55;11.07;;;5.43;;
81314;SDS011;75773;52.534;5.686;2024-03-07T15:10:30;9.88;;;5.35;;
81314;SDS011;75773;52.534;5.686;2024-03-07T15:13:03;8.90;;;4.75;;
81314;SDS011;75773;52.534;5.686;2024-03-07T15:15:33;7.25;;;3.20;;
81314;SDS011;75773;52.534;5.686;2024-03-07T15:18:03;12.77;;;3.95;;
81314;SDS011;75773;52.534;5.686;2024-03-07T15:20:33;11.73;;;4.97;;
81314;SDS011;75773;52.534;5.686;2024-03-07T15:23:02;11.43;;;5.68;;
81314;SDS011;75773;52.534;5.686;2024-03-07T15:25:34;8.50;;;3.90;;
81314;SDS011;75773;52.534;5.686;2024-03-07T15:28:05;9.30;;;3.85;;
81314;SDS011;75773;52.534;5.686;2024-03-07T15:30:34;11.93;;;5.20;;
81314;SDS011;75773;52.534;5.686;2024-03-07T15:33:04;12.10;;;4.72;;
81314;SDS011;75773;52.534;5.686;2024-03-07T15:35:34;9.13;;;4.75;;
81314;SDS011;75773;52.534;5.686;2024-03-07T15:38:04;9.13;;;4.63;;
81314;SDS011;75773;52.534;5.686;2024-03-07T15:40:37;9.90;;;4.78;;
81314;SDS011;75773;52.534;5.686;2024-03-07T15:43:06;6.78;;;3.75;;
81314;SDS011;75773;52.534;5.686;2024-03-07T15:45:37;10.00;;;5.32;;
81314;SDS011;75773;52.534;5.686;2024-03-07T15:48:07;7.70;;;4.22;;
81314;SDS011;75773;52.534;5.686;2024-03-07T15:50:40;10.52;;;4.13;;
81314;SDS011;75773;52.534;5.686;2024-03-07T15:53:13;11.07;;;4.53;;
81314;SDS011;75773;52.534;5.686;2024-03-07T15:55:46;5.97;;;2.95;;
81314;SDS011;75773;52.534;5.686;2024-03-07T15:58:15;8.82;;;3.10;;
81314;SDS011;75773;52.534;5.686;2024-03-07T16:00:46;11.82;;;5.78;;
81314;SDS011;75773;52.534;5.686;2024-03-07T16:03:16;8.57;;;4.70;;
81314;SDS011;75773;52.534;5.686;2024-03-07T16:05:50;10.07;;;5.05;;
81314;SDS011;75773;52.534;5.686;2024-03-07T16:08:20;8.88;;;3.83;;
81314;SDS011;75773;52.534;5.686;2024-03-07T16:10:52;12.45;;;4.82;;
81314;SDS011;75773;52.534;5.686;2024-03-07T16:13:22;8.27;;;3.08;;
81314;SDS011;75773;52.534;5.686;2024-03-07T16:15:54;13.60;;;5.95;;
81314;SDS011;75773;52.534;5.686;2024-03-07T16:18:30;9.95;;;4.32;;
81314;SDS011;75773;52.534;5.686;2024-03-07T16:20:59;14.73;;;5.28;;
81314;SDS011;75773;52.534;5.686;2024-03-07T16:23:29;9.68;;;4.68;;
81314;SDS011;75773;52.534;5.686;2024-03-07T16:26:01;11.05;;;4.60;;
81314;SDS011;75773;52.534;5.686;2024-03-07T16:28:34;13.68;;;4.82;;
81314;SDS011;75773;52.534;5.686;2024-03-07T16:31:04;15.43;;;5.38;;
81314;SDS011;75773;52.534;5.686;2024-03-07T16:33:33;14.32;;;4.40;;
81314;SDS011;75773;52.534;5.686;2024-03-07T16:36:02;12.05;;;4.70;;
81314;SDS011;75773;52.534;5.686;2024-03-07T16:38:33;11.60;;;5.22;;
81314;SDS011;75773;52.534;5.686;2024-03-07T16:41:07;8.77;;;4.15;;
81314;SDS011;75773;52.534;5.686;2024-03-07T16:43:37;13.13;;;5.75;;
81314;SDS011;75773;52.534;5.686;2024-03-07T16:46:08;8.75;;;4.63;;
81314;SDS011;75773;52.534;5.686;2024-03-07T16:48:37;8.63;;;3.83;;
81314;SDS011;75773;52.534;5.686;2024-03-07T16:51:06;10.90;;;4.75;;
81314;SDS011;75773;52.534;5.686;2024-03-07T16:53:36;10.40;;;5.40;;
81314;SDS011;75773;52.534;5.686;2024-03-07T16:56:08;9.35;;;4.90;;
81314;SDS011;75773;52.534;5.686;2024-03-07T16:58:37;15.15;;;5.55;;
81314;SDS011;75773;52.534;5.686;2024-03-07T17:01:06;9.80;;;5.43;;
81314;SDS011;75773;52.534;5.686;2024-03-07T17:03:39;8.88;;;4.35;;
81314;SDS011;75773;52.534;5.686;2024-03-07T17:09:13;9.25;;;4.57;;
81314;SDS011;75773;52.534;5.686;2024-03-07T17:11:47;15.27;;;5.28;;
81314;SDS011;75773;52.534;5.686;2024-03-07T17:14:17;9.75;;;4.93;;
81314;SDS011;75773;52.534;5.686;2024-03-07T17:16:49;10.75;;;4.40;;
81314;SDS011;75773;52.534;5.686;2024-03-07T17:19:20;13.50;;;5.13;;
81314;SDS011;75773;52.534;5.686;2024-03-07T17:21:49;6.60;;;3.28;;
81314;SDS011;75773;52.534;5.686;2024-03-07T17:24:19;11.32;;;5.40;;
81314;SDS011;75773;52.534;5.686;2024-03-07T17:26:51;10.65;;;5.00;;